createdAt,value
2019-04-04T00:00:53.957Z,975.52
2019-04-04T00:01:53.948Z,975.48
2019-04-04T00:02:53.952Z,975.48
2019-04-04T00:03:53.942Z,975.45
2019-04-04T00:04:53.940Z,975.45
2019-04-04T00:05:55.065Z,975.49
2019-04-04T00:06:53.912Z,975.48
2019-04-04T00:07:53.904Z,975.46
2019-04-04T00:08:53.899Z,975.42
2019-04-04T00:09:53.889Z,975.4
2019-04-04T00:10:53.882Z,975.39
2019-04-04T00:11:53.874Z,975.37
2019-04-04T00:12:53.867Z,975.33
2019-04-04T00:13:53.858Z,975.28
2019-04-04T00:14:53.868Z,975.23
2019-04-04T00:15:53.844Z,975.27
2019-04-04T00:16:53.836Z,975.32
2019-04-04T00:17:54.308Z,975.32
2019-04-04T00:18:53.819Z,975.28
2019-04-04T00:19:53.809Z,975.3
2019-04-04T00:20:53.803Z,975.25
2019-04-04T00:21:53.795Z,975.24
2019-04-04T00:22:53.820Z,975.24
2019-04-04T00:23:53.779Z,975.27
2019-04-04T00:24:53.781Z,975.31
2019-04-04T00:25:53.767Z,975.34
2019-04-04T00:26:53.760Z,975.34
2019-04-04T00:27:53.750Z,975.35
2019-04-04T00:28:53.746Z,975.37
2019-04-04T00:29:53.748Z,975.37
2019-04-04T00:30:53.729Z,975.34
2019-04-04T00:31:53.720Z,975.31
2019-04-04T00:32:53.712Z,975.29
2019-04-04T00:33:53.812Z,975.35
2019-04-04T00:34:53.696Z,975.33
2019-04-04T00:35:53.692Z,975.33
2019-04-04T00:36:53.682Z,975.31
2019-04-04T00:37:53.683Z,975.29
2019-04-04T00:38:53.672Z,975.31
2019-04-04T00:39:53.661Z,975.31
2019-04-04T00:40:53.662Z,975.32
2019-04-04T00:41:53.660Z,975.33
2019-04-04T00:42:53.636Z,975.3
2019-04-04T00:43:53.636Z,975.29
2019-04-04T00:44:53.828Z,975.29
2019-04-04T00:45:53.613Z,975.26
2019-04-04T00:46:53.605Z,975.24
2019-04-04T00:47:53.608Z,975.15
2019-04-04T00:48:53.610Z,975.07
2019-04-04T00:49:53.583Z,975.05
2019-04-04T00:50:53.578Z,975.05
2019-04-04T00:51:53.571Z,975.03
2019-04-04T00:52:53.559Z,975.02
2019-04-04T00:53:53.558Z,974.9
2019-04-04T00:54:53.546Z,974.83
2019-04-04T00:55:53.541Z,974.68
2019-04-04T00:56:53.611Z,974.58
2019-04-04T00:57:53.609Z,974.54
2019-04-04T00:58:53.517Z,974.57
2019-04-04T00:59:53.984Z,974.64
2019-04-04T01:00:54.852Z,974.75
2019-04-04T01:01:54.998Z,974.76
2019-04-04T01:02:53.483Z,974.78
2019-04-04T01:03:53.492Z,974.69
2019-04-04T01:04:53.482Z,974.66
2019-04-04T01:05:53.473Z,974.62
2019-04-04T01:06:53.451Z,974.6
2019-04-04T01:07:53.444Z,974.56
2019-04-04T01:08:53.438Z,974.53
2019-04-04T01:09:53.431Z,974.45
2019-04-04T01:10:53.421Z,974.46
2019-04-04T01:11:53.409Z,974.4
2019-04-04T01:12:53.417Z,974.38
2019-04-04T01:13:53.415Z,974.45
2019-04-04T01:14:53.390Z,974.47
2019-04-04T01:15:53.386Z,974.51
2019-04-04T01:16:53.374Z,974.54
2019-04-04T01:17:53.369Z,974.58
2019-04-04T01:18:53.357Z,974.59
2019-04-04T01:19:53.353Z,974.55
2019-04-04T01:20:53.353Z,974.52
2019-04-04T01:21:53.962Z,974.4
2019-04-04T01:22:54.023Z,974.32
2019-04-04T01:23:53.332Z,974.21
2019-04-04T01:24:53.311Z,974.16
2019-04-04T01:25:53.302Z,974.06
2019-04-04T01:26:53.297Z,974
2019-04-04T01:27:53.287Z,973.94
2019-04-04T01:28:53.283Z,973.97
2019-04-04T01:29:53.271Z,973.98
2019-04-04T01:30:53.264Z,974
2019-04-04T01:31:53.258Z,974.03
2019-04-04T01:32:53.250Z,973.98
2019-04-04T01:33:53.239Z,974.05
2019-04-04T01:34:53.236Z,974.07
2019-04-04T01:35:53.934Z,974.12
2019-04-04T01:36:55.989Z,974.14
2019-04-04T01:37:53.210Z,974.12
2019-04-04T01:38:53.202Z,974.14
2019-04-04T01:39:53.193Z,974.15
2019-04-04T01:40:54.966Z,974.12
2019-04-04T01:41:53.179Z,974.11
2019-04-04T01:42:53.170Z,974.12
2019-04-04T01:44:04.486Z,974.11
2019-04-04T01:44:53.153Z,974.01
2019-04-04T01:45:53.145Z,973.99
2019-04-04T01:46:53.139Z,973.92
2019-04-04T01:47:53.127Z,973.86
2019-04-04T01:48:53.122Z,973.9
2019-04-04T01:49:53.113Z,973.85
2019-04-04T01:50:53.726Z,973.88
2019-04-04T01:51:53.103Z,973.95
2019-04-04T01:52:53.091Z,973.93
2019-04-04T01:53:53.084Z,973.98
2019-04-04T01:54:53.071Z,974.08
2019-04-04T01:55:53.062Z,974.1
2019-04-04T01:56:53.053Z,974.08
2019-04-04T01:57:53.045Z,974.07
2019-04-04T01:58:53.039Z,974.14
2019-04-04T01:59:53.031Z,974.06
2019-04-04T02:00:53.030Z,974.07
2019-04-04T02:01:53.016Z,974.08
2019-04-04T02:02:53.009Z,974.11
2019-04-04T02:03:53.622Z,974.04
2019-04-04T02:04:53.888Z,973.95
2019-04-04T02:05:52.982Z,973.79
2019-04-04T02:06:52.973Z,973.65
2019-04-04T02:07:52.965Z,973.54
2019-04-04T02:08:52.958Z,973.4
2019-04-04T02:09:52.966Z,973.43
2019-04-04T02:10:52.940Z,973.54
2019-04-04T02:11:52.934Z,973.59
2019-04-04T02:12:52.926Z,973.74
2019-04-04T02:13:52.917Z,973.74
2019-04-04T02:14:52.907Z,973.76
2019-04-04T02:15:52.902Z,973.81
2019-04-04T02:16:52.903Z,973.75
2019-04-04T02:17:53.455Z,973.72
2019-04-04T02:18:53.743Z,973.78
2019-04-04T02:19:55.467Z,973.75
2019-04-04T02:20:52.860Z,973.79
2019-04-04T02:21:52.855Z,973.69
2019-04-04T02:22:52.841Z,973.64
2019-04-04T02:23:52.836Z,973.68
2019-04-04T02:24:52.827Z,973.71
2019-04-04T02:25:52.823Z,973.68
2019-04-04T02:26:52.810Z,973.7
2019-04-04T02:27:52.804Z,973.64
2019-04-04T02:28:52.868Z,973.56
2019-04-04T02:29:52.799Z,973.54
2019-04-04T02:30:52.781Z,973.57
2019-04-04T02:31:53.491Z,973.51
2019-04-04T02:32:52.762Z,973.48
2019-04-04T02:33:52.759Z,973.43
2019-04-04T02:34:52.749Z,973.47
2019-04-04T02:35:52.738Z,973.48
2019-04-04T02:36:52.728Z,973.44
2019-04-04T02:37:54.867Z,973.36
2019-04-04T02:38:52.717Z,973.31
2019-04-04T02:39:52.709Z,973.28
2019-04-04T02:40:52.696Z,973.27
2019-04-04T02:41:52.688Z,973.33
2019-04-04T02:42:55.132Z,973.36
2019-04-04T02:43:52.672Z,973.35
2019-04-04T02:44:52.662Z,973.36
2019-04-04T02:45:52.658Z,973.39
2019-04-04T02:46:52.650Z,973.44
2019-04-04T02:47:52.638Z,973.45
2019-04-04T02:48:53.508Z,973.43
2019-04-04T02:49:52.623Z,973.41
2019-04-04T02:50:52.622Z,973.38
2019-04-04T02:51:52.607Z,973.38
2019-04-04T02:52:52.600Z,973.41
2019-04-04T02:53:53.094Z,973.39
2019-04-04T02:54:56.945Z,973.41
2019-04-04T02:55:52.581Z,973.35
2019-04-04T02:56:52.564Z,973.24
2019-04-04T02:57:52.560Z,973.12
2019-04-04T02:58:52.565Z,973.01
2019-04-04T02:59:53.255Z,973.01
2019-04-04T03:00:52.536Z,973.1
2019-04-04T03:01:52.526Z,973.15
2019-04-04T03:02:52.521Z,973.18
2019-04-04T03:03:52.541Z,973.18
2019-04-04T03:04:52.505Z,973.1
2019-04-04T03:05:52.525Z,973.03
2019-04-04T03:06:57.045Z,972.99
2019-04-04T03:07:52.476Z,972.92
2019-04-04T03:08:52.480Z,972.99
2019-04-04T03:09:52.469Z,973.03
2019-04-04T03:10:52.465Z,973.04
2019-04-04T03:11:53.895Z,973
2019-04-04T03:12:52.437Z,972.97
2019-04-04T03:13:52.436Z,973
2019-04-04T03:14:52.420Z,973
2019-04-04T03:15:52.422Z,973.02
2019-04-04T03:16:56.216Z,973.06
2019-04-04T03:17:52.401Z,973.05
2019-04-04T03:18:52.389Z,973.03
2019-04-04T03:19:52.397Z,973.03
2019-04-04T03:20:52.380Z,972.94
2019-04-04T03:21:54.660Z,972.89
2019-04-04T03:22:52.364Z,972.83
2019-04-04T03:23:52.359Z,972.88
2019-04-04T03:24:52.340Z,972.93
2019-04-04T03:25:52.370Z,972.91
2019-04-04T03:26:53.376Z,972.9
2019-04-04T03:27:52.327Z,972.87
2019-04-04T03:28:52.312Z,972.81
2019-04-04T03:29:52.319Z,972.71
2019-04-04T03:31:01.228Z,972.64
2019-04-04T03:31:52.283Z,972.64
2019-04-04T03:32:54.670Z,972.64
2019-04-04T03:33:52.272Z,972.6
2019-04-04T03:34:52.265Z,972.53
2019-04-04T03:35:52.273Z,972.47
2019-04-04T03:36:52.244Z,972.43
2019-04-04T03:37:52.237Z,972.39
2019-04-04T03:38:52.227Z,972.4
2019-04-04T03:39:53.359Z,972.41
2019-04-04T03:40:52.216Z,972.36
2019-04-04T03:41:52.218Z,972.4
2019-04-04T03:42:52.197Z,972.42
2019-04-04T03:43:52.188Z,972.46
2019-04-04T03:44:53.243Z,972.49
2019-04-04T03:45:52.174Z,972.53
2019-04-04T03:46:52.165Z,972.55
2019-04-04T03:47:52.158Z,972.57
2019-04-04T03:48:52.176Z,972.53
2019-04-04T03:49:56.317Z,972.53
2019-04-04T03:50:52.138Z,972.57
2019-04-04T03:51:52.128Z,972.56
2019-04-04T03:52:52.119Z,972.56
2019-04-04T03:53:52.110Z,972.51
2019-04-04T03:54:54.964Z,972.54
2019-04-04T03:55:52.098Z,972.5
2019-04-04T03:56:52.091Z,972.46
2019-04-04T03:57:55.060Z,972.42
2019-04-04T03:58:52.072Z,972.37
2019-04-04T03:59:52.087Z,972.31
2019-04-04T04:00:52.070Z,972.32
2019-04-04T04:01:52.142Z,972.33
2019-04-04T04:02:52.071Z,972.34
2019-04-04T04:03:54.561Z,972.39
2019-04-04T04:04:52.029Z,972.27
2019-04-04T04:05:52.040Z,972.28
2019-04-04T04:06:52.032Z,972.26
2019-04-04T04:07:52.029Z,972.28
2019-04-04T04:08:54.631Z,972.26
2019-04-04T04:09:51.991Z,972.28
2019-04-04T04:10:52.007Z,972.28
2019-04-04T04:11:51.991Z,972.26
2019-04-04T04:12:51.988Z,972.22
2019-04-04T04:13:51.961Z,972.22
2019-04-04T04:14:54.725Z,972.18
2019-04-04T04:15:51.952Z,972.18
2019-04-04T04:16:51.949Z,972.15
2019-04-04T04:17:51.935Z,972.07
2019-04-04T04:18:54.390Z,972.08
2019-04-04T04:19:51.923Z,972.15
2019-04-04T04:20:51.901Z,972.18
2019-04-04T04:21:51.920Z,972.2
2019-04-04T04:22:51.974Z,972.19
2019-04-04T04:23:56.132Z,972.16
2019-04-04T04:24:51.884Z,972.13
2019-04-04T04:25:51.893Z,972.08
2019-04-04T04:26:51.853Z,972.03
2019-04-04T04:27:51.853Z,972.02
2019-04-04T04:28:53.063Z,972.05
2019-04-04T04:29:51.901Z,972.01
2019-04-04T04:30:51.832Z,972.03
2019-04-04T04:31:51.829Z,972.02
2019-04-04T04:32:55.523Z,972
2019-04-04T04:33:51.798Z,972.03
2019-04-04T04:34:51.814Z,972.06
2019-04-04T04:35:51.790Z,972.15
2019-04-04T04:36:51.788Z,972.18
2019-04-04T04:37:53.286Z,972.19
2019-04-04T04:38:51.760Z,972.15
2019-04-04T04:39:51.761Z,972.18
2019-04-04T04:40:51.781Z,972.19
2019-04-04T04:41:54.103Z,972.2
2019-04-04T04:42:51.748Z,972.13
2019-04-04T04:43:51.718Z,972.15
2019-04-04T04:44:51.712Z,972.17
2019-04-04T04:45:51.731Z,972.1
2019-04-04T04:46:51.689Z,972.09
2019-04-04T04:47:55.838Z,972.1
2019-04-04T04:48:51.673Z,972.12
2019-04-04T04:49:54.946Z,972.08
2019-04-04T04:50:51.657Z,972.05
2019-04-04T04:51:51.647Z,972
2019-04-04T04:52:51.641Z,971.97
2019-04-04T04:53:51.634Z,971.92
2019-04-04T04:54:52.268Z,971.92
2019-04-04T04:55:51.614Z,971.94
2019-04-04T04:56:51.617Z,971.93
2019-04-04T04:57:51.606Z,971.93
2019-04-04T04:58:51.597Z,971.99
2019-04-04T04:59:51.589Z,972.03
2019-04-04T05:00:51.589Z,972.02
2019-04-04T05:01:51.567Z,971.98
2019-04-04T05:02:53.058Z,971.97
2019-04-04T05:03:51.550Z,971.87
2019-04-04T05:04:51.566Z,971.93
2019-04-04T05:05:51.533Z,972.04
2019-04-04T05:06:51.533Z,972.01
2019-04-04T05:07:51.523Z,972.05
2019-04-04T05:08:51.508Z,972
2019-04-04T05:09:51.500Z,971.91
2019-04-04T05:10:51.491Z,971.89
2019-04-04T05:11:51.482Z,971.89
2019-04-04T05:12:53.024Z,971.86
2019-04-04T05:13:51.464Z,971.87
2019-04-04T05:14:51.455Z,971.88
2019-04-04T05:15:51.453Z,971.88
2019-04-04T05:16:51.442Z,971.93
2019-04-04T05:17:51.434Z,971.89
2019-04-04T05:18:51.426Z,971.87
2019-04-04T05:19:51.416Z,971.85
2019-04-04T05:20:51.406Z,971.9
2019-04-04T05:21:51.417Z,971.91
2019-04-04T05:22:51.393Z,971.86
2019-04-04T05:23:51.382Z,971.82
2019-04-04T05:25:06.681Z,971.8
2019-04-04T05:25:54.087Z,971.78
2019-04-04T05:26:51.379Z,971.73
2019-04-04T05:27:51.350Z,971.74
2019-04-04T05:28:51.344Z,971.73
2019-04-04T05:29:51.335Z,971.72
2019-04-04T05:30:51.368Z,971.77
2019-04-04T05:31:51.317Z,971.81
2019-04-04T05:32:52.399Z,971.82
2019-04-04T05:33:51.318Z,971.83
2019-04-04T05:34:51.307Z,971.85
2019-04-04T05:35:51.330Z,971.77
2019-04-04T05:36:51.304Z,971.8
2019-04-04T05:37:51.293Z,971.75
2019-04-04T05:38:51.264Z,971.81
2019-04-04T05:39:52.065Z,971.75
2019-04-04T05:40:51.244Z,971.76
2019-04-04T05:41:51.249Z,971.79
2019-04-04T05:42:51.232Z,971.76
2019-04-04T05:43:51.224Z,971.81
2019-04-04T05:44:51.248Z,971.8
2019-04-04T05:45:51.210Z,971.8
2019-04-04T05:46:52.030Z,971.72
2019-04-04T05:47:51.183Z,971.74
2019-04-04T05:48:51.182Z,971.69
2019-04-04T05:49:51.167Z,971.77
2019-04-04T05:50:51.165Z,971.75
2019-04-04T05:51:51.151Z,971.74
2019-04-04T05:52:51.156Z,971.7
2019-04-04T05:53:51.135Z,971.7
2019-04-04T05:54:51.125Z,971.66
2019-04-04T05:55:51.128Z,971.75
2019-04-04T05:56:51.115Z,971.73
2019-04-04T05:57:51.618Z,971.75
2019-04-04T05:58:53.032Z,971.71
2019-04-04T05:59:51.090Z,971.66
2019-04-04T06:00:51.072Z,971.62
2019-04-04T06:01:51.090Z,971.63
2019-04-04T06:02:51.058Z,971.65
2019-04-04T06:03:51.047Z,971.69
2019-04-04T06:04:55.096Z,971.77
2019-04-04T06:05:51.064Z,971.76
2019-04-04T06:06:51.022Z,971.79
2019-04-04T06:07:51.012Z,971.8
2019-04-04T06:08:51.025Z,971.82
2019-04-04T06:09:50.999Z,971.78
2019-04-04T06:10:50.987Z,971.81
2019-04-04T06:11:53.039Z,971.77
2019-04-04T06:12:50.973Z,971.83
2019-04-04T06:13:50.965Z,971.81
2019-04-04T06:14:50.957Z,971.78
2019-04-04T06:15:50.947Z,971.82
2019-04-04T06:16:50.949Z,971.85
2019-04-04T06:17:50.927Z,971.82
2019-04-04T06:18:50.920Z,971.8
2019-04-04T06:19:50.913Z,971.78
2019-04-04T06:20:50.906Z,971.78
2019-04-04T06:21:50.893Z,971.72
2019-04-04T06:22:51.965Z,971.61
2019-04-04T06:23:50.882Z,971.61
2019-04-04T06:24:52.168Z,971.56
2019-04-04T06:25:50.859Z,971.57
2019-04-04T06:26:50.854Z,971.55
2019-04-04T06:27:50.842Z,971.59
2019-04-04T06:28:50.842Z,971.66
2019-04-04T06:29:50.832Z,971.74
2019-04-04T06:30:53.252Z,971.79
2019-04-04T06:31:50.808Z,971.86
2019-04-04T06:32:50.813Z,971.88
2019-04-04T06:33:50.790Z,971.84
2019-04-04T06:34:50.785Z,971.79
2019-04-04T06:35:50.777Z,971.78
2019-04-04T06:36:50.766Z,971.8
2019-04-04T06:37:51.285Z,971.79
2019-04-04T06:38:52.191Z,971.81
2019-04-04T06:39:50.748Z,971.81
2019-04-04T06:40:50.734Z,971.87
2019-04-04T06:41:50.734Z,971.87
2019-04-04T06:42:50.744Z,971.92
2019-04-04T06:43:50.744Z,971.92
2019-04-04T06:44:50.702Z,971.93
2019-04-04T06:45:50.695Z,971.88
2019-04-04T06:46:51.296Z,971.86
2019-04-04T06:47:50.675Z,971.85
2019-04-04T06:48:50.673Z,971.84
2019-04-04T06:49:50.657Z,971.9
2019-04-04T06:50:50.648Z,971.91
2019-04-04T06:51:50.642Z,971.93
2019-04-04T06:52:51.182Z,971.95
2019-04-04T06:53:53.250Z,971.98
2019-04-04T06:54:50.618Z,971.94
2019-04-04T06:55:50.605Z,971.9
2019-04-04T06:56:50.600Z,971.92
2019-04-04T06:57:51.336Z,971.89
2019-04-04T06:58:50.583Z,971.88
2019-04-04T06:59:51.175Z,971.9
2019-04-04T07:00:50.567Z,971.85
2019-04-04T07:01:51.996Z,971.84
2019-04-04T07:02:50.549Z,971.84
2019-04-04T07:03:52.626Z,971.84
2019-04-04T07:04:50.533Z,971.87
2019-04-04T07:05:50.531Z,971.88
2019-04-04T07:06:50.520Z,971.91
2019-04-04T07:07:50.517Z,971.92
2019-04-04T07:08:50.504Z,971.97
2019-04-04T07:09:50.987Z,971.96
2019-04-04T07:10:57.653Z,971.9
2019-04-04T07:11:50.478Z,971.87
2019-04-04T07:12:50.469Z,971.91
2019-04-04T07:13:50.460Z,971.93
2019-04-04T07:14:50.459Z,971.98
2019-04-04T07:16:05.361Z,971.99
2019-04-04T07:16:50.452Z,972.01
2019-04-04T07:17:50.428Z,971.98
2019-04-04T07:18:50.420Z,971.93
2019-04-04T07:19:50.409Z,971.95
2019-04-04T07:20:50.402Z,971.92
2019-04-04T07:21:51.286Z,971.91
2019-04-04T07:22:50.391Z,971.91
2019-04-04T07:23:50.378Z,971.93
2019-04-04T07:24:50.369Z,971.95
2019-04-04T07:25:53.286Z,972
2019-04-04T07:26:50.361Z,972.03
2019-04-04T07:27:50.350Z,972.1
2019-04-04T07:28:53.723Z,972.13
2019-04-04T07:29:50.331Z,972.17
2019-04-04T07:30:50.319Z,972.17
2019-04-04T07:31:50.314Z,972.18
2019-04-04T07:32:50.303Z,972.2
2019-04-04T07:33:50.296Z,972.2
2019-04-04T07:34:50.305Z,972.22
2019-04-04T07:35:50.283Z,972.23
2019-04-04T07:36:51.164Z,972.18
2019-04-04T07:37:52.896Z,972.22
2019-04-04T07:38:50.256Z,972.25
2019-04-04T07:39:50.275Z,972.2
2019-04-04T07:40:50.241Z,972.19
2019-04-04T07:41:50.238Z,972.18
2019-04-04T07:42:50.223Z,972.18
2019-04-04T07:43:51.476Z,972.22
2019-04-04T07:44:50.206Z,972.21
2019-04-04T07:45:50.203Z,972.29
2019-04-04T07:46:50.190Z,972.28
2019-04-04T07:47:50.183Z,972.32
2019-04-04T07:48:51.514Z,972.3
2019-04-04T07:49:50.166Z,972.28
2019-04-04T07:50:51.476Z,972.31
2019-04-04T07:51:50.184Z,972.34
2019-04-04T07:52:50.144Z,972.34
2019-04-04T07:53:50.143Z,972.38
2019-04-04T07:54:50.133Z,972.34
2019-04-04T07:55:50.135Z,972.41
2019-04-04T07:56:50.115Z,972.44
2019-04-04T07:57:51.128Z,972.42
2019-04-04T07:58:50.095Z,972.45
2019-04-04T07:59:50.089Z,972.49
2019-04-04T08:00:50.079Z,972.47
2019-04-04T08:01:51.141Z,972.46
2019-04-04T08:02:50.066Z,972.41
2019-04-04T08:03:50.062Z,972.38
2019-04-04T08:04:50.050Z,972.38
2019-04-04T08:05:50.046Z,972.35
2019-04-04T08:06:50.034Z,972.32
2019-04-04T08:07:50.026Z,972.31
2019-04-04T08:08:50.020Z,972.35
2019-04-04T08:09:50.012Z,972.33
2019-04-04T08:10:50.012Z,972.35
2019-04-04T08:11:49.996Z,972.29
2019-04-04T08:12:49.989Z,972.26
2019-04-04T08:13:49.984Z,972.19
2019-04-04T08:14:49.971Z,972.2
2019-04-04T08:15:49.967Z,972.25
2019-04-04T08:16:49.974Z,972.3
2019-04-04T08:17:49.951Z,972.34
2019-04-04T08:18:49.942Z,972.41
2019-04-04T08:19:59.058Z,972.52
2019-04-04T08:20:49.935Z,972.51
2019-04-04T08:21:49.923Z,972.59
2019-04-04T08:22:49.918Z,972.56
2019-04-04T08:23:49.911Z,972.54
2019-04-04T08:24:49.902Z,972.46
2019-04-04T08:25:49.887Z,972.5
2019-04-04T08:26:49.880Z,972.45
2019-04-04T08:27:49.879Z,972.49
2019-04-04T08:28:49.866Z,972.45
2019-04-04T08:29:49.859Z,972.44
2019-04-04T08:30:49.850Z,972.4
2019-04-04T08:31:49.841Z,972.4
2019-04-04T08:32:49.833Z,972.45
2019-04-04T08:33:49.829Z,972.48
2019-04-04T08:34:49.823Z,972.46
2019-04-04T08:35:49.826Z,972.48
2019-04-04T08:36:49.802Z,972.51
2019-04-04T08:37:49.795Z,972.48
2019-04-04T08:38:49.788Z,972.47
2019-04-04T08:39:49.781Z,972.53
2019-04-04T08:40:49.773Z,972.45
2019-04-04T08:41:52.237Z,972.5
2019-04-04T08:42:49.766Z,972.46
2019-04-04T08:43:49.749Z,972.46
2019-04-04T08:44:49.753Z,972.47
2019-04-04T08:45:49.732Z,972.43
2019-04-04T08:46:49.729Z,972.49
2019-04-04T08:47:49.721Z,972.48
2019-04-04T08:48:49.710Z,972.47
2019-04-04T08:49:49.706Z,972.46
2019-04-04T08:50:49.701Z,972.42
2019-04-04T08:51:49.689Z,972.4
2019-04-04T08:52:49.684Z,972.34
2019-04-04T08:53:49.680Z,972.34
2019-04-04T08:54:49.677Z,972.37
2019-04-04T08:55:49.661Z,972.34
2019-04-04T08:56:49.653Z,972.29
2019-04-04T08:57:49.654Z,972.28
2019-04-04T08:58:51.616Z,972.25
2019-04-04T08:59:49.644Z,972.15
2019-04-04T09:00:49.625Z,972.05
2019-04-04T09:01:49.624Z,972
2019-04-04T09:02:49.615Z,972.04
2019-04-04T09:03:49.606Z,972.02
2019-04-04T09:04:49.599Z,972.03
2019-04-04T09:05:49.591Z,972.02
2019-04-04T09:06:49.595Z,972.06
2019-04-04T09:07:49.577Z,972.02
2019-04-04T09:08:49.568Z,971.99
2019-04-04T09:09:49.628Z,971.99
2019-04-04T09:10:49.556Z,972.04
2019-04-04T09:11:49.552Z,972.14
2019-04-04T09:12:49.555Z,972.25
2019-04-04T09:13:49.543Z,972.29
2019-04-04T09:14:49.527Z,972.24
2019-04-04T09:15:49.520Z,972.23
2019-04-04T09:16:49.512Z,972.15
2019-04-04T09:17:49.516Z,972.14
2019-04-04T09:18:49.503Z,972.17
2019-04-04T09:19:49.491Z,972.19
2019-04-04T09:20:49.486Z,972.19
2019-04-04T09:21:49.480Z,972.24
2019-04-04T09:22:49.488Z,972.16
2019-04-04T09:23:49.466Z,972.04
2019-04-04T09:24:49.456Z,972.01
2019-04-04T09:25:49.449Z,971.96
2019-04-04T09:26:49.442Z,971.91
2019-04-04T09:27:49.439Z,971.86
2019-04-04T09:28:49.433Z,971.84
2019-04-04T09:29:49.422Z,971.83
2019-04-04T09:30:49.419Z,971.91
2019-04-04T09:31:49.409Z,971.97
2019-04-04T09:32:49.402Z,972.03
2019-04-04T09:33:49.399Z,972.05
2019-04-04T09:34:49.394Z,972.07
2019-04-04T09:35:49.382Z,972.11
2019-04-04T09:36:49.383Z,972.18
2019-04-04T09:37:49.405Z,972.22
2019-04-04T09:38:49.360Z,972.26
2019-04-04T09:39:49.353Z,972.27
2019-04-04T09:40:49.348Z,972.3
2019-04-04T09:41:49.339Z,972.28
2019-04-04T09:42:49.332Z,972.22
2019-04-04T09:43:49.326Z,972.24
2019-04-04T09:44:49.319Z,972.27
2019-04-04T09:45:49.310Z,972.27
2019-04-04T09:46:49.302Z,972.28
2019-04-04T09:47:49.294Z,972.35
2019-04-04T09:48:49.301Z,972.42
2019-04-04T09:49:49.284Z,972.42
2019-04-04T09:50:49.273Z,972.41
2019-04-04T09:51:49.270Z,972.44
2019-04-04T09:52:49.279Z,972.42
2019-04-04T09:53:53.093Z,972.48
2019-04-04T09:54:49.247Z,972.48
2019-04-04T09:55:49.240Z,972.47
2019-04-04T09:56:49.237Z,972.44
2019-04-04T09:57:49.228Z,972.42
2019-04-04T09:58:49.219Z,972.44
2019-04-04T09:59:49.211Z,972.42
2019-04-04T10:00:49.212Z,972.43
2019-04-04T10:01:49.196Z,972.42
2019-04-04T10:02:49.189Z,972.46
2019-04-04T10:03:49.180Z,972.42
2019-04-04T10:04:49.172Z,972.48
2019-04-04T10:05:49.166Z,972.48
2019-04-04T10:06:49.161Z,972.49
2019-04-04T10:07:49.155Z,972.54
2019-04-04T10:08:49.145Z,972.57
2019-04-04T10:09:49.151Z,972.58
2019-04-04T10:10:49.133Z,972.6
2019-04-04T10:11:49.130Z,972.58
2019-04-04T10:12:49.124Z,972.54
2019-04-04T10:13:49.130Z,972.57
2019-04-04T10:14:49.107Z,972.55
2019-04-04T10:15:49.098Z,972.54
2019-04-04T10:16:49.094Z,972.57
2019-04-04T10:17:49.554Z,972.55
2019-04-04T10:18:49.092Z,972.55
2019-04-04T10:19:49.068Z,972.54
2019-04-04T10:20:49.066Z,972.55
2019-04-04T10:21:49.063Z,972.54
2019-04-04T10:22:49.057Z,972.54
2019-04-04T10:23:49.044Z,972.53
2019-04-04T10:24:49.036Z,972.53
2019-04-04T10:25:49.032Z,972.49
2019-04-04T10:26:49.022Z,972.48
2019-04-04T10:27:49.039Z,972.43
2019-04-04T10:28:49.022Z,972.47
2019-04-04T10:29:48.998Z,972.5
2019-04-04T10:30:48.990Z,972.55
2019-04-04T10:31:48.986Z,972.59
2019-04-04T10:32:48.979Z,972.66
2019-04-04T10:33:48.968Z,972.67
2019-04-04T10:34:48.961Z,972.67
2019-04-04T10:35:48.955Z,972.69
2019-04-04T10:36:48.948Z,972.7
2019-04-04T10:37:48.946Z,972.77
2019-04-04T10:38:48.953Z,972.81
2019-04-04T10:39:48.925Z,972.74
2019-04-04T10:40:48.918Z,972.73
2019-04-04T10:41:48.919Z,972.71
2019-04-04T10:42:48.905Z,972.68
2019-04-04T10:43:48.898Z,972.66
2019-04-04T10:44:48.892Z,972.65
2019-04-04T10:45:48.895Z,972.73
2019-04-04T10:46:48.908Z,972.71
2019-04-04T10:47:48.869Z,972.7
2019-04-04T10:48:48.866Z,972.6
2019-04-04T10:49:48.856Z,972.65
2019-04-04T10:50:48.850Z,972.64
2019-04-04T10:51:48.844Z,972.67
2019-04-04T10:52:48.838Z,972.69
2019-04-04T10:53:48.831Z,972.7
2019-04-04T10:54:48.831Z,972.73
2019-04-04T10:55:48.834Z,972.72
2019-04-04T10:56:48.808Z,972.74
2019-04-04T10:57:48.801Z,972.73
2019-04-04T10:58:48.793Z,972.69
2019-04-04T10:59:48.801Z,972.66
2019-04-04T11:00:48.780Z,972.62
2019-04-04T11:01:48.773Z,972.62
2019-04-04T11:02:48.771Z,972.59
2019-04-04T11:03:48.776Z,972.55
2019-04-04T11:04:48.754Z,972.61
2019-04-04T11:05:48.746Z,972.68
2019-04-04T11:06:48.737Z,972.69
2019-04-04T11:07:48.740Z,972.7
2019-04-04T11:08:48.724Z,972.68
2019-04-04T11:09:48.717Z,972.7
2019-04-04T11:10:48.714Z,972.73
2019-04-04T11:11:48.711Z,972.63
2019-04-04T11:12:48.697Z,972.72
2019-04-04T11:13:48.691Z,972.76
2019-04-04T11:14:48.681Z,972.77
2019-04-04T11:15:48.684Z,972.72
2019-04-04T11:16:48.671Z,972.69
2019-04-04T11:17:48.665Z,972.64
2019-04-04T11:18:48.664Z,972.65
2019-04-04T11:19:48.648Z,972.62
2019-04-04T11:20:48.641Z,972.64
2019-04-04T11:21:48.642Z,972.64
2019-04-04T11:22:48.628Z,972.72
2019-04-04T11:23:48.627Z,972.69
2019-04-04T11:24:48.615Z,972.73
2019-04-04T11:25:48.607Z,972.8
2019-04-04T11:26:48.604Z,972.82
2019-04-04T11:27:48.598Z,972.84
2019-04-04T11:28:48.592Z,972.89
2019-04-04T11:29:48.590Z,972.84
2019-04-04T11:30:48.580Z,972.92
2019-04-04T11:31:48.572Z,972.94
2019-04-04T11:32:49.003Z,973.01
2019-04-04T11:33:48.559Z,973.04
2019-04-04T11:34:53.241Z,972.92
2019-04-04T11:35:48.548Z,972.86
2019-04-04T11:36:48.538Z,972.89
2019-04-04T11:37:48.533Z,972.94
2019-04-04T11:38:48.532Z,972.93
2019-04-04T11:39:54.320Z,972.89
2019-04-04T11:40:48.517Z,972.84
2019-04-04T11:41:48.507Z,972.82
2019-04-04T11:42:48.504Z,972.76
2019-04-04T11:43:48.497Z,972.71
2019-04-04T11:44:48.489Z,972.75
2019-04-04T11:45:48.484Z,972.75
2019-04-04T11:46:48.472Z,972.76
2019-04-04T11:47:48.474Z,972.8
2019-04-04T11:48:48.459Z,972.8
2019-04-04T11:49:48.455Z,972.88
2019-04-04T11:50:48.447Z,973.04
2019-04-04T11:51:48.440Z,973.02
2019-04-04T11:52:48.434Z,973.14
2019-04-04T11:53:48.432Z,973.17
2019-04-04T11:54:48.420Z,973.21
2019-04-04T11:55:48.415Z,973.27
2019-04-04T11:56:48.408Z,973.16
2019-04-04T11:57:48.402Z,973.16
2019-04-04T11:58:48.425Z,973.17
2019-04-04T11:59:49.195Z,973.17
2019-04-04T12:00:48.393Z,973.24
2019-04-04T12:01:48.376Z,973.26
2019-04-04T12:02:48.378Z,973.2
2019-04-04T12:03:48.365Z,973.21
2019-04-04T12:04:48.363Z,973.31
2019-04-04T12:05:48.372Z,973.37
2019-04-04T12:06:48.354Z,973.48
2019-04-04T12:07:48.342Z,973.52
2019-04-04T12:08:48.338Z,973.55
2019-04-04T12:09:48.330Z,973.49
2019-04-04T12:10:48.321Z,973.49
2019-04-04T12:11:48.321Z,973.55
2019-04-04T12:12:48.305Z,973.56
2019-04-04T12:13:50.485Z,973.57
2019-04-04T12:14:48.305Z,973.63
2019-04-04T12:15:48.298Z,973.65
2019-04-04T12:16:48.278Z,973.7
2019-04-04T12:17:48.272Z,973.71
2019-04-04T12:18:48.266Z,973.71
2019-04-04T12:19:48.264Z,973.81
2019-04-04T12:20:48.252Z,973.78
2019-04-04T12:21:48.251Z,973.83
2019-04-04T12:22:48.261Z,973.81
2019-04-04T12:23:51.150Z,973.87
2019-04-04T12:24:48.227Z,973.89
2019-04-04T12:25:48.221Z,973.87
2019-04-04T12:26:48.210Z,973.95
2019-04-04T12:27:48.204Z,973.94
2019-04-04T12:28:48.197Z,973.93
2019-04-04T12:29:48.195Z,974.01
2019-04-04T12:30:48.186Z,974.06
2019-04-04T12:31:48.177Z,974.14